Nearby METAR Reports

 

KMTN - Baltimore/Martin, Maryland, USA
Distance from station: SSE 8mi, 13km
Updated: Sat, 25-Nov-2017 4:09am EST
Clear
Clear
 Wind from calm
Wind: Calm
Temperature: 32°F , 0°C
Dew Point: 32°F , 0°C
Humidity: 100%
Barometer: 29.89 inHg , 1012.2 hPa
Clouds: Clear
Visibility: 7 miles , 11 km
2017/11/25 09:09 KMTN 250909Z AUTO 00000KT 7SM CLR 00/00 A2989 RMK AO2
KDMH - Baltimore/Dwntwn, Maryland, USA
Distance from station: SW 12mi, 19km
Updated: Sat, 25-Nov-2017 3:54am EST

 
Temperature: 39°F , 4°C
Dew Point: 32°F , 0°C
Humidity: 75%
Barometer: 29.87 inHg , 1011.5 hPa
2017/11/25 08:54 KDMH 250854Z AUTO 04/00 A2987 RMK AO1 SLP114 T00440000 58016
 
KBWI - Balto/Wash Intl, Maryland, USA
Distance from station: SSW 20mi, 33km
Updated: Sat, 25-Nov-2017 3:54am EST
Partly cloudy
Partly cloudy
 Wind from calm
Wind: Calm
Temperature: 34°F , 1°C
Dew Point: 30°F , -1°C
Humidity: 87%
Barometer: 29.86 inHg , 1011.2 hPa
Clouds: Partly cloudy
Visibility: 10 miles , 16 km
Cloud details: Partly cloudy 25000 ft
2017/11/25 08:54 KBWI 250854Z 00000KT 10SM SCT250 01/M01 A2986 RMK AO2 SLP113 T00111006 56016
KDMW - Carroll Cnty, Maryland, USA
Distance from station: WNW 30mi, 48km
Updated: Sat, 25-Nov-2017 3:45am EST
Clear
Clear
 Wind from S
Wind: S 8 mph , 13 km/h
Temperature: 39°F , 4°C
Wind Chill: 33°F , 1°C
Dew Point: 30°F , -1°C
Humidity: 70%
Barometer: 29.83 inHg , 1010.2 hPa
Clouds: Clear
Visibility: 10 miles , 16 km
2017/11/25 08:45 KDMW 250845Z AUTO 18007KT 10SM CLR 04/M01 A2983 RMK AO2
 
KNAK - Annapolis/Naval, Maryland, USA
Distance from station: S 30mi, 48km
Updated: Sat, 25-Nov-2017 3:54am EST
Clear
Clear
 Wind from calm
Wind: Calm
Temperature: 41°F , 5°C
Dew Point: 36°F , 2°C
Humidity: 81%
Barometer: 29.86 inHg , 1011.2 hPa
Clouds: Clear
Visibility: 10 miles , 16 km
2017/11/25 08:54 KNAK 250854Z AUTO 00000KT 10SM CLR 05/02 A2986 RMK AO2 SLP113 T00500022 58020
KW29 - Stevensville, Maryland, USA
Distance from station: SSE 31mi, 50km
Updated: Sat, 25-Nov-2017 4:00am EST
Clear
Clear
 Wind from S
Wind: S 5 mph , 7 km/h
Temperature: 43°F , 6°C
Wind Chill: 40°F , 4°C
Dew Point: 36°F , 2°C
Humidity: 76%
Barometer: 29.86 inHg , 1011.2 hPa
Clouds: Clear
Visibility: 10 miles , 16 km
2017/11/25 09:00 KW29 250900Z AUTO 19004KT 10SM CLR 06/02 A2986 RMK AO2
 
KCGS - College Park, Maryland, USA
Distance from station: SW 38mi, 61km
Updated: Sat, 25-Nov-2017 4:06am EST
Clear
Clear
 Wind from calm
Wind: Calm
Temperature: 30°F , -1°C
Dew Point: 28°F , -2°C
Humidity: 93%
Barometer: 29.86 inHg , 1011.2 hPa
Clouds: Clear
Visibility: 10 miles , 16 km
2017/11/25 09:06 KCGS 250906Z AUTO 00000KT 10SM CLR M01/M02 A2986 RMK AO1 T10131021
KGAI - Gaithersburg, Maryland, USA
Distance from station: WSW 40mi, 65km
Updated: Sat, 25-Nov-2017 3:56am EST
Clear
Clear
 Wind from calm
Wind: Calm
Temperature: 36°F , 2°C
Dew Point: 30°F , -1°C
Humidity: 81%
Barometer: 29.85 inHg , 1010.8 hPa
Clouds: Clear
Visibility: 10 miles , 16 km
2017/11/25 08:56 KGAI 250856Z AUTO 00000KT 10SM CLR 02/M01 A2985 RMK AO2 SLP141 T00221011 56015 FZRANO
 
KTHV - York, Pennsylvania, USA
Distance from station: NNW 40mi, 65km
Updated: Sat, 25-Nov-2017 3:53am EST
Clear
Clear
 Wind from calm
Wind: Calm
Temperature: 25°F , -4°C
Dew Point: 25°F , -4°C
Humidity: 100%
Barometer: 29.83 inHg , 1010.2 hPa
Clouds: Clear
Visibility: 10 miles , 16 km
2017/11/25 08:53 KTHV 250853Z AUTO 00000KT 10SM CLR M04/M04 A2983 RMK AO2 SLP107 T10391044 56014
KFDK - Frederick, Maryland, USA
Distance from station: W 47mi, 75km
Updated: Sat, 25-Nov-2017 4:05am EST
Clear
Clear
 Wind from calm
Wind: Calm
Temperature: 30°F , -1°C
Dew Point: 30°F , -1°C
Humidity: 100%
Barometer: 29.87 inHg , 1011.5 hPa
Clouds: Clear
Visibility: 10 miles , 16 km
2017/11/25 09:05 KFDK 250905Z AUTO 00000KT 10SM CLR M01/M01 A2987 RMK AO2
 
KESN - Easton/Newnam, Maryland, USA
Distance from station: SSE 48mi, 78km
Updated: Sat, 25-Nov-2017 4:16am EST
Mist, Clear
Mist, Clear
 Wind from S
Wind: S 5 mph , 7 km/h
Temperature: 36°F , 2°C
Wind Chill: 32°F , 0°C
Dew Point: 34°F , 1°C
Humidity: 93%
Barometer: 29.91 inHg , 1012.9 hPa
Summary: Mist
Clouds: Clear
Visibility: 4 miles , 6 km
2017/11/25 09:16 KESN 250916Z AUTO 17004KT 4SM BR CLR 02/01 A2991 RMK AO2 T00160006
KDCA - Washington/Natl, Washington D.c., USA
Distance from station: SW 49mi, 79km
Updated: Sat, 25-Nov-2017 3:52am EST
Clear
Clear
 Wind from SW
Wind: SW 3 mph , 6 km/h
Temperature: 39°F , 4°C
Dew Point: 36°F , 2°C
Humidity: 87%
Barometer: 29.88 inHg , 1011.9 hPa
Clouds: Clear
Visibility: 10 miles , 16 km
2017/11/25 08:52 KDCA 250852Z 22003KT 10SM CLR 04/02 A2988 RMK AO2 SLP118 T00390017 56015
 
KLNS - Lancaster, Pennsylvania, USA
Distance from station: N 49mi, 79km
Updated: Sat, 25-Nov-2017 3:53am EST
Clear
Clear
 Wind from NE
Wind: NE 6 mph , 9 km/h
Temperature: 32°F , 0°C
Wind Chill: 26°F , -3°C
Dew Point: 28°F , -2°C
Humidity: 87%
Barometer: 29.85 inHg , 1010.8 hPa
Clouds: Clear
Visibility: 10 miles , 16 km
2017/11/25 08:53 KLNS 250853Z AUTO 05005KT 10SM CLR 00/M02 A2985 RMK AO2 SLP111 T00001017 56014
KILG - Wilmington, Delaware, USA
Distance from station: ENE 50mi, 81km
Updated: Sat, 25-Nov-2017 3:51am EST
Clear
Clear
 Wind from calm
Wind: Calm
Temperature: 34°F , 1°C
Dew Point: 30°F , -1°C
Humidity: 87%
Barometer: 29.88 inHg , 1011.9 hPa
Clouds: Clear
Visibility: 9 miles , 14 km
2017/11/25 08:51 KILG 250851Z AUTO 00000KT 9SM CLR 01/M01 A2988 RMK AO2 SLP117 T00111006 56019 $